Ana Sayfa
METAR-TAF:

METAR-TAF

Havaalanları :

Sonora Municipal Airport

Sonora, Teksas, Amerika Birleşik Devletleri

Enlem: 30-35-08N, Boylam: 100-38-54W, yükseklik: 652 m

Güncel hava durumu gözlemi

Rapor saat 09:15 UTC de 21 dakika önce yapıldı.
Sakin rüzgar
Sıcaklık 16°C
Nem 94%
Basınç 1011 hPa
Görüş mesafesi: 16.1 km
Açık gökyüzü

METAR: KSOA 250915Z AUTO 00000KT 10SM CLR 16/15 A2985 RMK AO2

Saat: 04:36 (09:36 UTC)

Tahmin

Rapor saat 05:40 UTC de 3 saat ve 56 dakika önce yapıldı.
Ayın 25'si saat 06 UTC'den ayın 26'si saat 06 UTC'ye kadar geçerli Tahmin
Rüzgar güney/güneydoğudan 9 kt
Görüş mesafesi: 10 km
10000 ft yükseklikte parçalı bulutlu
Ayın 25'si saat 1200 UTC'den
Rüzgar güneydoğudan 8 kt
Görüş mesafesi: 10 km
1500 ft yükseklikte parçalı çok bulutlu
Ayın 25'si saat 1700 UTC'den
Rüzgar güneydan 9 kt
Görüş mesafesi: 10 km
5000 ft yükseklikte parçalı çok bulutlu

TAF: KSOA 250540Z 2506/2606 16009KT P6SM SCT100 FM251200 13008KT P6SM BKN015 FM251700 17009KT P6SM BKN050

4.000'den fazla havaalanı için hava durumu gözlemleri ve tahminleri (METAR ve TAF raporları).

Kullanılabilir istasyonlar harita üzerinde sarı ve kırmızı noktalarla gösterilir.

İstasyonun adını görmek için fareyi noktanın üzerinde gezdirin.

Sonrasında hava gözlem ve tahminlerini görmek için tıklayın.

Haritayı değiştirmek için: yaklaştırmak için siyah artı işaretli yeşil düğmeye ve uzaklaştırmak için de eksi işaretli düğmeye hızla tıklayın; bitişik haritalar için yeşil okları kullanın.


METAR-TAF: